Soaring Guidance
Issued by NWS Reno, NV

Home | Current Version | Previous Version | Text Only | Print | Product List | Glossary On
Versions: 1 2 3 4 5 6 7 8 9 10 11 12 13
821
UXUS97 KREV 191441
SRGREV

SOARING FORECAST
NATIONAL WEATHER SERVICE - RENO NV
700 AM PST SUN NOV 19 2017

THIS SOARING FORECAST IS FOR THE EASTERN SIERRA AND WESTERN NEVADA
WITH SPECIFIC INDICES FOR THE GREATER RENO AREA.

THIS FORECAST IS PREPARED DAILY BY 700 AM AND IS NOT UPDATED.

FOR CURRENT FLIGHT CONDITIONS...FORECASTS...AND ADVISORIES...ACCESS
YOUR LOCAL BRIEFING OUTLET OR FLIGHT SERVICE STATION.

*******************************************************************
FORECASTED LOCAL INDICES FOR RENO:        TODAY     YESTERDAY
FORECASTED MAX TEMP AT RENO (DEG F).....     52          50
FORECASTED TRIGGER TEMPERATURE (DEG F)..     62          62
   NOT EXCEEDED YESTERDAY
FORECASTED MAXIMUM ALTITUDE (FT MSL)....   7700        7700
FORECASTED SOARING INDEX (FPM)..........    321         321
FORECASTED K-INDEX.........VALID 18Z....    -17         -34
FORECASTED K-INDEX.........VALID 00Z....    - 9         -23
FORECASTED LIFTED INDEX....VALID 18Z....      7          12
FORECASTED LIFTED INDEX....VALID 00Z....      7           8

AFTERNOON WINDS ALOFT FORECAST
MSL (FT) WIND/TEMP
9000  2528/+05
10000 2527/+03
12000 2626/+00
14000 2629/-04
16000 2732/-08
18000 2841/-13
24000 2862/-25
30000 2886/-39
34000 2993/-50
39000 8008/-61

SLIDE MOUNTAIN DATA:
     DATE       TIME     TEMP  DEWPT   RH         WIND (MPH)
                        (F)   (F)           | DIR  SPEED GUST
2017-11-19    05:50      34     1     12    | 244   37   44
2017-11-19    05:30      34     2     13    | 245   37   46
2017-11-19    05:20      34     3     14    | 245   38   47
2017-11-19    05:00      34     4     15    | 248   39   52

SIERRA CREST 8700 FT DATA:
   DATE     TIME  TEMP  RH         WIND
                            DIR   SPEED   GUST
2017-11-19 0545   33   19   233     31     38
2017-11-19 0530   33   19   225     31     39
2017-11-19 0515   34   20   220     28     35
2017-11-19 0500   33   19   222     26     32

RENO TAF FORECAST:
KRNO 191120Z 1912/2012 VRB03KT P6SM SCT250
     FM192200 VRB05KT P6SM BKN200

CARSON CITY TAF FORECAST:
KCXP 191120Z 1912/2012 VRB03KT P6SM SCT250
     FM192200 10010KT P6SM BKN200
     FM200200 VRB04KT P6SM BKN180

OUTLOOK FOR THE RENO-CARSON CITY-MINDEN AREA:
.MONDAY...MOSTLY CLOUDY. SLIGHT CHANCE OF RAIN IN THE AFTERNOON.
HIGHS 56 TO 61. SOUTHWEST WINDS 10 TO 15 MPH.

SUNRISE AND SUNSET
NOVEMBER 19 2017......SUNRISE   648 AM PST   SUNSET   441 PM PST
NOVEMBER 20 2017......SUNRISE   649 AM PST   SUNSET   440 PM PST



USA.gov is the U.S. government's official web portal to all federal, state and local government web resources and services.